KAUW/AUW METAR and TAF weather

Enter ICAO airport designator
Station Type Date Time Source
KAUW METAR 2020/07/11 17:54 UTC NOAA

KAUW 111754Z AUTO VRB06G15KT 10SM FEW055 SCT075 27/14 A2988 RMK AO2 SLP116 T02670139 10272 20189 58006 $


Station Type Date Time Source
KAUW Decoded METAR 2020/07/11 17:54 UTC NOAA

WAUSAU DOWNTOWN AIRPORT, WI, United States (KAUW) 44-56N 089-37W 362M
Jul 11, 2020 - 01:54 PM EDT / 2020.07.11 1754 UTC
Wind: Variable at 7 MPH (6 KT) gusting to 17 MPH (15 KT):0
Visibility: 10 mile(s):0
Sky conditions: partly cloudy
Temperature: 80.1 F (26.7 C)
Dew Point: 57.0 F (13.9 C)
Relative Humidity: 45%
Pressure (altimeter): 29.88 in. Hg (1011 hPa)
Pressure tendency: 0.02 inches (0.6 hPa) lower than three hours ago
ob: KAUW 111754Z AUTO VRB06G15KT 10SM FEW055 SCT075 27/14 A2988 RMK AO2 SLP116 T02670139 10272 20189 58006
cycle: 18

Station Type Date Time Source
KAUW TAF 2020/07/11 18:33 UTC NOAA

TAF KAUW 111730Z 1118/1218 30007KT P6SM SCT050
FM112000 33006KT P6SM SCT045
FM120200 02004KT P6SM SCT110
FM120900 03004KT P6SM SKC
FM121000 01004KT P6SM SCT090
FM121500 36006KT P6SM SCT040

Example: see airport list